Flight Track Log - Related Links

Times and Time Zones

All times are in EDT time to prevent confusion due to time zone crossing. See the EJA947 flight status page for this flight to view local times or setup timezone preferences in your user account.

Time Position Orientation Groundspeed Altitude Reporting Facility
EDT Latitude Longitude Course Direction KTS MPH feet Rate Location/Type
Sun 06:07:00 PM 42.4667 -71.3167 294° West 182 209 1,300  Level KA90
Sun 06:08:12 PM 42.5000 -71.4167 294° West 247 284 2,100 1,045 Climbing KA90
Sun 06:09:12 PM 42.5500 -71.4167 360° North 226 260 3,600 2,737 Climbing KA90
Sun 06:11:03 PM 42.6553 -71.3108 36° Northeast 253 291 9,900 2,982 Climbing Boston Center
Sun 06:12:03 PM 42.7344 -71.2953 North 266 306 12,100 2,150 Climbing Boston Center
Sun 06:13:03 PM 42.7892 -71.3736 314° West 271 312 14,200 2,450 Climbing Boston Center
Sun 06:14:03 PM 42.8050 -71.5147 279° West 277 319 17,000 2,200 Climbing Boston Center
Sun 06:15:03 PM 42.8164 -71.6306 278° West 311 358 18,600 2,150 Climbing Boston Center
Sun 06:16:03 PM 42.8297 -71.7636 278° West 337 388 21,300 2,500 Climbing Boston Center
Sun 06:17:03 PM 42.8408 -71.8964 277° West 355 409 23,600 2,350 Climbing Boston Center
Sun 06:18:03 PM 42.8539 -72.0350 277° West 362 417 26,000 2,250 Climbing Boston Center
Sun 06:19:03 PM 42.8689 -72.1767 278° West 374 430 28,100 1,900 Climbing Boston Center
Sun 06:20:03 PM 42.8858 -72.3183 279° West 374 430 29,800 2,050 Climbing Boston Center
Sun 06:21:03 PM 42.9006 -72.4656 278° West 386 444 32,200 2,500 Climbing Boston Center
Sun 06:22:03 PM 42.9108 -72.6103 276° West 391 450 34,800 2,150 Climbing Boston Center
Sun 06:23:03 PM 42.9189 -72.7717 274° West 384 442 36,500 1,650 Climbing Boston Center
Sun 06:24:03 PM 42.9289 -72.9194 275° West 391 450 38,100 1,500 Climbing Boston Center
Sun 06:25:03 PM 42.9447 -73.0556 279° West 397 457 39,500 950 Climbing Boston Center
Sun 06:26:03 PM 42.9564 -73.2061 276° West 397 457 40,000 250 Climbing Boston Center
Sun 06:27:03 PM 42.9675 -73.3792 275° West 416 479 40,000  Level Boston Center
Sun 06:28:03 PM 42.9806 -73.5469 276° West 430 495 40,000  Level Boston Center
Sun 06:29:03 PM 42.9936 -73.7117 276° West 441 507 40,000  Level Boston Center
Sun 06:30:03 PM 43.0081 -73.8853 277° West 447 514 40,000  Level Boston Center
Sun 06:31:03 PM 43.0206 -74.0531 276° West 447 514 40,000  Level Boston Center
Sun 06:32:03 PM 43.0347 -74.2239 277° West 447 514 40,000  Level Boston Center
Sun 06:33:03 PM 43.0464 -74.3892 276° West 447 514 40,000  Level Boston Center
Sun 06:34:03 PM 43.0581 -74.5600 275° West 447 514 40,000  Level Boston Center
Sun 06:35:03 PM 43.0672 -74.7308 274° West 447 514 40,000  Level Boston Center
Sun 06:36:03 PM 43.0803 -74.9019 276° West 452 520 40,000  Level Boston Center
Sun 06:37:03 PM 43.0894 -75.0531 275° West 452 520 40,000  Level Boston Center
Sun 06:38:03 PM 43.1022 -75.2242 276° West 452 520 40,000  Level Boston Center
Sun 06:39:03 PM 43.1122 -75.3981 275° West 459 528 40,000  Level Boston Center
Sun 06:40:03 PM 43.1244 -75.5722 276° West 465 535 40,000  Level Boston Center
Sun 06:41:03 PM 43.1361 -75.7436 275° West 465 535 40,000 -50 Level Boston Center
Sun 06:42:03 PM 43.1456 -75.9178 274° West 465 535 39,900  Descending Boston Center
Sun 06:43:03 PM 43.1547 -76.0919 274° West 465 535 40,000 38 Climbing Boston Center
Sun 06:44:40 PM 43.1147 -76.3594 259° West 445 512 40,000  Level Cleveland Center
Sun 06:45:40 PM 43.0639 -76.5136 246° West 445 512 40,000  Level Cleveland Center
Sun 06:46:40 PM 43.0131 -76.6731 246° West 455 524 40,000  Level Cleveland Center
Sun 06:47:40 PM 42.9619 -76.8294 246° West 455 524 40,000  Level Cleveland Center
Sun 06:48:40 PM 42.9108 -76.9856 246° West 455 524 40,000  Level Cleveland Center
Sun 06:49:40 PM 42.8592 -77.1417 246° West 455 524 40,000  Level Cleveland Center
Sun 06:50:40 PM 42.8075 -77.3003 246° West 455 524 40,000  Level Cleveland Center
Sun 06:51:40 PM 42.7575 -77.4528 246° West 449 517 40,000  Level Cleveland Center
Sun 06:52:40 PM 42.7075 -77.6133 247° West 447 514 40,000  Level Cleveland Center
Sun 06:53:40 PM 42.6531 -77.7658 244° Southwest 447 514 40,000  Level Cleveland Center
Sun 06:54:40 PM 42.5967 -77.9375 246° West 447 514 40,000  Level Cleveland Center
Sun 06:55:40 PM 42.5458 -78.0889 246° West 447 514 40,000  Level Cleveland Center
Sun 06:56:40 PM 42.4928 -78.2489 246° West 447 514 40,000  Level Cleveland Center
Sun 06:57:40 PM 42.4397 -78.4028 245° Southwest 453 521 40,000  Level Cleveland Center
Sun 06:58:40 PM 42.3861 -78.5592 245° Southwest 453 521 40,000  Level Cleveland Center
Sun 06:59:40 PM 42.3325 -78.7181 246° West 453 521 40,000  Level Cleveland Center
Sun 07:00:40 PM 42.2767 -78.8742 244° Southwest 458 527 40,000  Level Cleveland Center
Sun 07:01:40 PM 42.2286 -79.0100 244° Southwest 458 527 40,000  Level Cleveland Center
Sun 07:02:40 PM 42.1953 -79.1792 255° West 458 527 40,000  Level Cleveland Center
Sun 07:03:40 PM 42.1744 -79.3475 261° West 464 534 40,000  Level Cleveland Center
Sun 07:04:40 PM 42.1511 -79.5189 260° West 464 534 40,000  Level Cleveland Center
Sun 07:05:40 PM 42.1317 -79.6872 261° West 469 540 40,000  Level Cleveland Center
Sun 07:06:40 PM 42.1097 -79.8556 260° West 469 540 40,000  Level Cleveland Center
Sun 07:07:40 PM 42.0839 -80.0489 260° West 469 540 40,000  Level Cleveland Center
Sun 07:08:40 PM 42.0594 -80.2167 259° West 469 540 40,000  Level Cleveland Center
Sun 07:09:40 PM 42.0369 -80.3903 260° West 469 540 40,000  Level Cleveland Center
Sun 07:10:40 PM 42.0142 -80.5636 260° West 469 540 40,000  Level Cleveland Center
Sun 07:11:40 PM 41.9911 -80.7144 258° West 469 540 40,000  Level Cleveland Center
Sun 07:12:40 PM 41.9658 -80.8903 259° West 469 540 40,000  Level Cleveland Center
Sun 07:13:40 PM 41.9444 -81.0633 261° West 469 540 40,000  Level Cleveland Center
Sun 07:14:40 PM 41.9186 -81.2361 259° West 469 540 40,000  Level Cleveland Center
Sun 07:15:40 PM 41.8944 -81.4033 259° West 469 540 40,000  Level Cleveland Center
Sun 07:16:40 PM 41.8703 -81.5731 259° West 469 540 40,000  Level Cleveland Center
Sun 07:17:40 PM 41.8436 -81.7481 258° West 469 540 40,000  Level Cleveland Center
Sun 07:18:40 PM 41.8189 -81.9178 259° West 469 540 40,000  Level Cleveland Center
Sun 07:19:40 PM 41.7936 -82.0869 259° West 469 540 40,000  Level Cleveland Center
Sun 07:20:40 PM 41.7683 -82.2592 259° West 469 540 40,000  Level Cleveland Center
Sun 07:21:40 PM 41.7511 -82.4314 262° West 469 540 40,000  Level Cleveland Center
Sun 07:22:40 PM 41.7292 -82.6197 261° West 469 540 40,000  Level Cleveland Center
Sun 07:23:40 PM 41.7072 -82.7917 260° West 469 540 40,000  Level Cleveland Center
Sun 07:24:40 PM 41.6872 -82.9661 261° West 469 540 40,000  Level Cleveland Center
Sun 07:25:40 PM 41.6667 -83.1406 261° West 469 540 40,000  Level Cleveland Center
Sun 07:26:40 PM 41.6481 -83.3119 262° West 475 547 40,000  Level Cleveland Center
Sun 07:27:40 PM 41.6250 -83.4861 260° West 480 552 40,000  Level Cleveland Center
Sun 07:28:40 PM 41.6058 -83.6603 262° West 480 552 40,000  Level Cleveland Center
Sun 07:29:40 PM 41.5844 -83.8342 261° West 480 552 40,000 -100 Level Cleveland Center
Sun 07:30:40 PM 41.5606 -84.0078 260° West 485 558 39,800 -1,667 Descending Cleveland Center
Sun 07:32:22 PM 41.5272 -84.2886 261° West 456 525 35,500 -2,488 Descending Chicago Center
Sun 07:33:24 PM 41.5064 -84.4500 260° West 443 510 33,000 -2,468 Descending Chicago Center
Sun 07:34:26 PM 41.4844 -84.6242 261° West 467 537 30,400 -1,452 Descending Chicago Center
Sun 07:35:28 PM 41.4864 -84.8047 271° West 487 560 30,000 -242 Descending Chicago Center
Sun 07:36:30 PM 41.4936 -84.9800 273° West 478 550 29,900 -1,016 Descending Chicago Center
Sun 07:37:32 PM 41.4989 -85.1517 272° West 464 534 27,900 -1,984 Descending Chicago Center
Sun 07:38:34 PM 41.5039 -85.3283 272° West 469 540 25,800 -1,887 Descending Chicago Center
Sun 07:39:36 PM 41.5094 -85.5028 272° West 459 528 24,000 -1,694 Descending Chicago Center
Sun 07:40:38 PM 41.5150 -85.6656 273° West 434 499 22,300 -1,984 Descending Chicago Center
Sun 07:41:40 PM 41.5197 -85.8567 272° West 427 491 19,900 -2,177 Descending Chicago Center
Sun 07:42:42 PM 41.5239 -86.0056 272° West 399 459 17,800 -2,323 Descending Chicago Center
Sun 07:43:44 PM 41.5239 -86.1408 270° West 367 422 15,100 -2,565 Descending Chicago Center
Sun 07:44:46 PM 41.5231 -86.2919 270° West 406 467 12,500 -2,371 Descending Chicago Center
Sun 07:45:48 PM 41.5233 -86.4333 270° West 376 433 10,200 -1,210 Descending Chicago Center
Sun 07:46:50 PM 41.5217 -86.5664 269° West 362 417 10,000 -97 Descending Chicago Center
Sun 07:47:52 PM 41.5203 -86.7278 269° West 360 414 10,000 -145 Level Chicago Center
Sun 07:48:54 PM 41.5203 -86.8386 270° West 292 336 9,700 -726 Descending Chicago Center
Sun 07:49:56 PM 41.5186 -86.9425 269° West 283 326 8,500 -1,210 Descending Chicago Center
Sun 07:50:58 PM 41.5183 -87.0431 270° West 275 316 7,200 -1,210 Descending Chicago Center
Sun 07:52:00 PM 41.5261 -87.1422 276° West 272 313 6,000 -783 Descending Chicago Center
Sun 07:52:30 PM 41.5333 -87.2000 279° West 270 311 6,000 -188 Level Chicago TRACON
Sun 07:53:36 PM 41.5333 -87.3167 270° West 272 313 5,700 -857 Descending Chicago TRACON
Sun 07:54:36 PM 41.5500 -87.4167 283° West 267 307 4,200 -1,133 Descending Chicago TRACON
Sun 07:55:06 PM 41.5464 -87.4567 263° West 265 305 4,000 -129 Descending Chicago Center
Sun 07:56:09 PM 41.5564 -87.5517 278° West 263 303 4,000  Level Chicago Center
Sun 07:57:11 PM 41.5656 -87.6494 277° West 264 304 4,000  Level Chicago Center
Sun 07:58:13 PM 41.5728 -87.7431 276° West 259 298 4,000  Level Chicago Center
Sun 07:59:15 PM 41.5625 -87.8247 260° West 209 241 4,000  Level Chicago Center
Sun 08:00:17 PM 41.5442 -87.8881 249° West 192 221 4,000  Level Chicago Center
Sun 08:01:19 PM 41.5625 -87.9486 292° West 191 220 4,000  Level Chicago Center
Sun 08:02:21 PM 41.6067 -87.9700 340° North 205 236 4,000 -145 Level Chicago Center
Sun 08:03:23 PM 41.6564 -87.9319 30° Northeast 215 247 3,700 -677 Descending Chicago Center
Sun 08:04:25 PM 41.6933 -87.8686 52° Northeast 191 220 2,600 -677 Descending Chicago Center
Sun 08:05:27 PM 41.7294 -87.8239 43° Northeast 183 211 2,300 -238 Descending Chicago Center
Sun 08:06:31 PM 41.7833 -87.8500 340° North 174 200 2,100 -240 Descending Chicago TRACON
Sun 08:07:32 PM 41.8167 -87.8167 37° Northeast 150 173 1,800 -417 Descending Chicago TRACON
Sun 08:08:26 PM 41.8167 -87.7833 90° East 120 138 1,300 -556 Descending Chicago TRACON

Login

Don't have an account? Register now (free) for customized features, flight alerts, and more!